Allisona, Tennessee
Current Conditions -  °F | °C
As of 6:53 PM on Monday 26 Jan 2015 (Local Time) from KBNA Reporting Station
Overcast Overcast  
Wind Chill: -1°   Ceiling: 8000
Heat Index:   Visibility: 9mi
Dew Point: -1°   Wind: 5mph
Humidity: 85%   Direction: 80°E
Pressure: 29.97"   Gusts: NA
Location:  35.7808°N, 86.7221°W
Report Text: KBNA 270053Z 08004KT 9SM OVC080 01/M01 A2997 RMK AO2 SNE50GSB02E13 SLP154 P0000 T00111011
Loading
Personal Weather Stations






























Interactive Weather Map New forecast layout! Learn more

10-Day Weather Forecast

Advertisements
Track Severe Weather on mobile